sensor_id;sensor_type;location;lat;lon;timestamp;P1;durP1;ratioP1;P2;durP2;ratioP2
69912;SDS011;57198;52.082;5.108;2023-02-03T00:01:48;8.85;;;2.97;;
69912;SDS011;57198;52.082;5.108;2023-02-03T00:04:16;5.37;;;2.43;;
69912;SDS011;57198;52.082;5.108;2023-02-03T00:06:43;12.38;;;3.00;;
69912;SDS011;57198;52.082;5.108;2023-02-03T00:09:10;9.85;;;2.92;;
69912;SDS011;57198;52.082;5.108;2023-02-03T00:11:38;6.82;;;2.67;;
69912;SDS011;57198;52.082;5.108;2023-02-03T00:14:05;10.57;;;3.20;;
69912;SDS011;57198;52.082;5.108;2023-02-03T00:16:33;9.80;;;3.00;;
69912;SDS011;57198;52.082;5.108;2023-02-03T00:19:00;9.45;;;2.83;;
69912;SDS011;57198;52.082;5.108;2023-02-03T00:21:28;17.10;;;3.97;;
69912;SDS011;57198;52.082;5.108;2023-02-03T00:23:55;9.77;;;2.83;;
69912;SDS011;57198;52.082;5.108;2023-02-03T00:26:22;10.93;;;3.38;;
69912;SDS011;57198;52.082;5.108;2023-02-03T00:28:51;9.93;;;2.67;;
69912;SDS011;57198;52.082;5.108;2023-02-03T00:31:20;13.68;;;3.30;;
69912;SDS011;57198;52.082;5.108;2023-02-03T00:33:51;11.20;;;3.22;;
69912;SDS011;57198;52.082;5.108;2023-02-03T00:36:19;13.30;;;3.15;;
69912;SDS011;57198;52.082;5.108;2023-02-03T00:38:46;14.80;;;3.42;;
69912;SDS011;57198;52.082;5.108;2023-02-03T00:41:15;8.67;;;2.53;;
69912;SDS011;57198;52.082;5.108;2023-02-03T00:43:43;8.50;;;2.72;;
69912;SDS011;57198;52.082;5.108;2023-02-03T00:46:10;11.43;;;3.15;;
69912;SDS011;57198;52.082;5.108;2023-02-03T00:48:37;11.35;;;3.28;;
69912;SDS011;57198;52.082;5.108;2023-02-03T00:51:05;11.30;;;4.20;;
69912;SDS011;57198;52.082;5.108;2023-02-03T00:53:32;9.47;;;2.80;;
69912;SDS011;57198;52.082;5.108;2023-02-03T00:56:00;10.18;;;2.88;;
69912;SDS011;57198;52.082;5.108;2023-02-03T00:58:27;14.95;;;3.92;;
69912;SDS011;57198;52.082;5.108;2023-02-03T01:00:55;7.15;;;2.70;;
69912;SDS011;57198;52.082;5.108;2023-02-03T01:03:23;11.57;;;3.78;;
69912;SDS011;57198;52.082;5.108;2023-02-03T01:05:50;8.33;;;2.63;;
69912;SDS011;57198;52.082;5.108;2023-02-03T01:08:18;9.32;;;3.22;;
69912;SDS011;57198;52.082;5.108;2023-02-03T01:10:45;12.68;;;2.67;;
69912;SDS011;57198;52.082;5.108;2023-02-03T01:13:12;6.47;;;2.80;;
69912;SDS011;57198;52.082;5.108;2023-02-03T01:15:46;9.70;;;2.88;;
69912;SDS011;57198;52.082;5.108;2023-02-03T01:18:14;14.17;;;2.97;;
69912;SDS011;57198;52.082;5.108;2023-02-03T01:20:42;10.70;;;2.92;;
69912;SDS011;57198;52.082;5.108;2023-02-03T01:23:09;6.20;;;2.90;;
69912;SDS011;57198;52.082;5.108;2023-02-03T01:25:37;8.00;;;2.92;;
69912;SDS011;57198;52.082;5.108;2023-02-03T01:28:04;8.77;;;3.25;;
69912;SDS011;57198;52.082;5.108;2023-02-03T01:30:31;9.13;;;2.50;;
69912;SDS011;57198;52.082;5.108;2023-02-03T01:32:59;10.55;;;3.00;;
69912;SDS011;57198;52.082;5.108;2023-02-03T01:35:26;8.55;;;2.78;;
69912;SDS011;57198;52.082;5.108;2023-02-03T01:37:53;7.18;;;2.55;;
69912;SDS011;57198;52.082;5.108;2023-02-03T01:40:20;11.95;;;3.35;;
69912;SDS011;57198;52.082;5.108;2023-02-03T01:42:48;12.47;;;2.67;;
69912;SDS011;57198;52.082;5.108;2023-02-03T01:45:15;10.35;;;2.90;;
69912;SDS011;57198;52.082;5.108;2023-02-03T01:47:45;9.55;;;2.72;;
69912;SDS011;57198;52.082;5.108;2023-02-03T01:52:42;8.20;;;2.83;;
69912;SDS011;57198;52.082;5.108;2023-02-03T01:55:13;7.53;;;2.43;;
69912;SDS011;57198;52.082;5.108;2023-02-03T01:57:43;6.95;;;2.40;;
69912;SDS011;57198;52.082;5.108;2023-02-03T02:00:11;12.90;;;3.15;;
69912;SDS011;57198;52.082;5.108;2023-02-03T02:02:38;5.10;;;2.25;;
69912;SDS011;57198;52.082;5.108;2023-02-03T02:07:34;6.93;;;2.57;;
69912;SDS011;57198;52.082;5.108;2023-02-03T02:10:03;10.35;;;3.10;;
69912;SDS011;57198;52.082;5.108;2023-02-03T02:12:31;10.07;;;2.70;;
69912;SDS011;57198;52.082;5.108;2023-02-03T02:14:58;11.65;;;2.78;;
69912;SDS011;57198;52.082;5.108;2023-02-03T02:17:35;10.75;;;3.50;;
69912;SDS011;57198;52.082;5.108;2023-02-03T02:25:53;5.78;;;2.55;;
69912;SDS011;57198;52.082;5.108;2023-02-03T02:28:44;8.77;;;2.67;;
69912;SDS011;57198;52.082;5.108;2023-02-03T02:34:03;8.47;;;2.53;;
69912;SDS011;57198;52.082;5.108;2023-02-03T02:37:21;10.98;;;3.60;;
69912;SDS011;57198;52.082;5.108;2023-02-03T02:39:30;11.82;;;2.83;;
69912;SDS011;57198;52.082;5.108;2023-02-03T02:42:03;6.55;;;2.30;;
69912;SDS011;57198;52.082;5.108;2023-02-03T02:44:56;6.78;;;2.25;;
69912;SDS011;57198;52.082;5.108;2023-02-03T02:47:21;10.33;;;2.30;;
69912;SDS011;57198;52.082;5.108;2023-02-03T02:49:53;7.05;;;2.30;;
69912;SDS011;57198;52.082;5.108;2023-02-03T02:52:22;7.07;;;2.88;;
69912;SDS011;57198;52.082;5.108;2023-02-03T02:54:51;6.50;;;2.97;;
69912;SDS011;57198;52.082;5.108;2023-02-03T02:57:23;5.93;;;2.30;;
69912;SDS011;57198;52.082;5.108;2023-02-03T02:59:52;6.10;;;2.40;;
69912;SDS011;57198;52.082;5.108;2023-02-03T03:02:20;13.95;;;3.25;;
69912;SDS011;57198;52.082;5.108;2023-02-03T03:04:47;7.85;;;2.83;;
69912;SDS011;57198;52.082;5.108;2023-02-03T03:07:17;6.78;;;2.75;;
69912;SDS011;57198;52.082;5.108;2023-02-03T03:09:49;9.40;;;3.45;;
69912;SDS011;57198;52.082;5.108;2023-02-03T03:12:20;8.70;;;2.23;;
69912;SDS011;57198;52.082;5.108;2023-02-03T03:15:03;4.60;;;2.40;;
69912;SDS011;57198;52.082;5.108;2023-02-03T03:17:33;5.82;;;2.65;;
69912;SDS011;57198;52.082;5.108;2023-02-03T03:20:03;8.20;;;2.70;;
69912;SDS011;57198;52.082;5.108;2023-02-03T03:22:33;7.70;;;3.17;;
69912;SDS011;57198;52.082;5.108;2023-02-03T03:25:05;6.40;;;3.20;;
69912;SDS011;57198;52.082;5.108;2023-02-03T03:27:37;5.90;;;2.80;;
69912;SDS011;57198;52.082;5.108;2023-02-03T03:30:08;7.32;;;2.35;;
69912;SDS011;57198;52.082;5.108;2023-02-03T03:32:36;7.38;;;2.63;;
69912;SDS011;57198;52.082;5.108;2023-02-03T03:35:04;6.55;;;2.40;;
69912;SDS011;57198;52.082;5.108;2023-02-03T03:37:42;10.03;;;3.20;;
69912;SDS011;57198;52.082;5.108;2023-02-03T03:42:45;6.25;;;2.65;;
69912;SDS011;57198;52.082;5.108;2023-02-03T03:45:16;9.13;;;3.05;;
69912;SDS011;57198;52.082;5.108;2023-02-03T03:50:32;3.40;;;2.10;;
69912;SDS011;57198;52.082;5.108;2023-02-03T03:53:01;6.85;;;2.72;;
69912;SDS011;57198;52.082;5.108;2023-02-03T03:55:29;5.70;;;2.25;;
69912;SDS011;57198;52.082;5.108;2023-02-03T03:57:58;6.57;;;2.60;;
69912;SDS011;57198;52.082;5.108;2023-02-03T04:00:27;6.30;;;2.83;;
69912;SDS011;57198;52.082;5.108;2023-02-03T04:02:57;5.43;;;2.17;;
69912;SDS011;57198;52.082;5.108;2023-02-03T04:05:26;7.57;;;2.30;;
69912;SDS011;57198;52.082;5.108;2023-02-03T04:07:54;3.92;;;2.78;;
69912;SDS011;57198;52.082;5.108;2023-02-03T04:12:52;6.53;;;2.10;;
69912;SDS011;57198;52.082;5.108;2023-02-03T04:15:19;6.60;;;2.17;;
69912;SDS011;57198;52.082;5.108;2023-02-03T04:17:46;7.45;;;1.95;;
69912;SDS011;57198;52.082;5.108;2023-02-03T04:20:14;5.88;;;2.88;;
69912;SDS011;57198;52.082;5.108;2023-02-03T04:22:41;5.30;;;2.38;;
69912;SDS011;57198;52.082;5.108;2023-02-03T04:25:08;5.63;;;2.35;;
69912;SDS011;57198;52.082;5.108;2023-02-03T04:27:36;6.23;;;1.90;;
69912;SDS011;57198;52.082;5.108;2023-02-03T04:30:03;6.00;;;2.60;;
69912;SDS011;57198;52.082;5.108;2023-02-03T04:32:31;6.25;;;2.63;;
69912;SDS011;57198;52.082;5.108;2023-02-03T04:35:01;5.93;;;2.05;;
69912;SDS011;57198;52.082;5.108;2023-02-03T04:37:28;4.72;;;2.55;;
69912;SDS011;57198;52.082;5.108;2023-02-03T04:39:55;7.30;;;2.33;;
69912;SDS011;57198;52.082;5.108;2023-02-03T04:42:23;6.50;;;2.35;;
69912;SDS011;57198;52.082;5.108;2023-02-03T04:44:50;5.18;;;2.50;;
69912;SDS011;57198;52.082;5.108;2023-02-03T04:47:18;7.68;;;2.67;;
69912;SDS011;57198;52.082;5.108;2023-02-03T04:49:45;5.95;;;2.30;;
69912;SDS011;57198;52.082;5.108;2023-02-03T04:52:12;5.03;;;1.93;;
69912;SDS011;57198;52.082;5.108;2023-02-03T04:54:40;3.92;;;2.00;;
69912;SDS011;57198;52.082;5.108;2023-02-03T04:57:07;7.22;;;2.17;;
69912;SDS011;57198;52.082;5.108;2023-02-03T04:59:34;4.50;;;2.05;;
69912;SDS011;57198;52.082;5.108;2023-02-03T05:02:02;6.93;;;2.25;;
69912;SDS011;57198;52.082;5.108;2023-02-03T05:04:30;5.63;;;1.77;;
69912;SDS011;57198;52.082;5.108;2023-02-03T05:06:57;8.55;;;2.38;;
69912;SDS011;57198;52.082;5.108;2023-02-03T05:09:25;6.38;;;3.03;;
69912;SDS011;57198;52.082;5.108;2023-02-03T05:11:52;3.50;;;2.20;;
69912;SDS011;57198;52.082;5.108;2023-02-03T05:14:19;4.65;;;2.30;;
69912;SDS011;57198;52.082;5.108;2023-02-03T05:16:47;6.03;;;3.03;;
69912;SDS011;57198;52.082;5.108;2023-02-03T05:19:14;9.00;;;2.25;;
69912;SDS011;57198;52.082;5.108;2023-02-03T05:21:41;9.43;;;2.40;;
69912;SDS011;57198;52.082;5.108;2023-02-03T05:24:09;7.25;;;2.10;;
69912;SDS011;57198;52.082;5.108;2023-02-03T05:26:36;5.38;;;2.67;;
69912;SDS011;57198;52.082;5.108;2023-02-03T05:29:03;8.43;;;2.03;;
69912;SDS011;57198;52.082;5.108;2023-02-03T05:31:30;5.30;;;2.25;;
69912;SDS011;57198;52.082;5.108;2023-02-03T05:33:59;5.00;;;2.38;;
69912;SDS011;57198;52.082;5.108;2023-02-03T05:36:26;4.82;;;2.05;;
69912;SDS011;57198;52.082;5.108;2023-02-03T05:38:53;5.20;;;2.20;;
69912;SDS011;57198;52.082;5.108;2023-02-03T05:41:20;5.20;;;2.20;;
69912;SDS011;57198;52.082;5.108;2023-02-03T05:44:06;7.28;;;2.35;;
69912;SDS011;57198;52.082;5.108;2023-02-03T05:46:33;8.40;;;2.83;;
69912;SDS011;57198;52.082;5.108;2023-02-03T05:49:01;6.28;;;1.92;;
69912;SDS011;57198;52.082;5.108;2023-02-03T05:51:28;5.55;;;2.40;;
69912;SDS011;57198;52.082;5.108;2023-02-03T05:53:55;3.50;;;2.07;;
69912;SDS011;57198;52.082;5.108;2023-02-03T05:56:22;5.47;;;1.95;;
69912;SDS011;57198;52.082;5.108;2023-02-03T05:58:50;5.40;;;3.00;;
69912;SDS011;57198;52.082;5.108;2023-02-03T06:01:18;6.10;;;2.33;;
69912;SDS011;57198;52.082;5.108;2023-02-03T06:03:46;6.22;;;2.30;;
69912;SDS011;57198;52.082;5.108;2023-02-03T06:06:14;9.43;;;1.90;;
69912;SDS011;57198;52.082;5.108;2023-02-03T06:08:41;4.80;;;2.13;;
69912;SDS011;57198;52.082;5.108;2023-02-03T06:11:09;6.50;;;2.83;;
69912;SDS011;57198;52.082;5.108;2023-02-03T06:13:36;5.82;;;2.10;;
69912;SDS011;57198;52.082;5.108;2023-02-03T06:16:04;6.95;;;2.20;;
69912;SDS011;57198;52.082;5.108;2023-02-03T06:18:31;6.20;;;2.27;;
69912;SDS011;57198;52.082;5.108;2023-02-03T06:20:58;4.25;;;2.03;;
69912;SDS011;57198;52.082;5.108;2023-02-03T06:23:26;6.97;;;2.40;;
69912;SDS011;57198;52.082;5.108;2023-02-03T06:25:53;6.47;;;2.42;;
69912;SDS011;57198;52.082;5.108;2023-02-03T06:28:21;5.68;;;2.40;;
69912;SDS011;57198;52.082;5.108;2023-02-03T06:30:48;7.13;;;2.13;;
69912;SDS011;57198;52.082;5.108;2023-02-03T06:33:20;7.68;;;2.95;;
69912;SDS011;57198;52.082;5.108;2023-02-03T06:35:47;8.77;;;2.70;;
69912;SDS011;57198;52.082;5.108;2023-02-03T06:38:15;4.50;;;2.63;;
69912;SDS011;57198;52.082;5.108;2023-02-03T06:40:44;9.48;;;2.70;;
69912;SDS011;57198;52.082;5.108;2023-02-03T06:43:12;3.80;;;2.10;;
69912;SDS011;57198;52.082;5.108;2023-02-03T06:45:39;8.07;;;2.58;;
69912;SDS011;57198;52.082;5.108;2023-02-03T06:48:06;5.97;;;2.30;;
69912;SDS011;57198;52.082;5.108;2023-02-03T06:50:34;8.43;;;2.33;;
69912;SDS011;57198;52.082;5.108;2023-02-03T06:53:01;5.72;;;1.83;;
69912;SDS011;57198;52.082;5.108;2023-02-03T06:55:28;8.43;;;1.97;;
69912;SDS011;57198;52.082;5.108;2023-02-03T06:57:55;5.53;;;2.35;;
69912;SDS011;57198;52.082;5.108;2023-02-03T07:00:23;8.50;;;2.53;;
69912;SDS011;57198;52.082;5.108;2023-02-03T07:02:53;5.53;;;2.15;;
69912;SDS011;57198;52.082;5.108;2023-02-03T07:05:21;6.22;;;2.50;;
69912;SDS011;57198;52.082;5.108;2023-02-03T07:07:49;6.53;;;2.37;;
69912;SDS011;57198;52.082;5.108;2023-02-03T07:10:17;6.72;;;2.20;;
69912;SDS011;57198;52.082;5.108;2023-02-03T07:12:44;5.13;;;2.83;;
69912;SDS011;57198;52.082;5.108;2023-02-03T07:15:12;4.47;;;2.08;;
69912;SDS011;57198;52.082;5.108;2023-02-03T07:17:39;9.18;;;2.92;;
69912;SDS011;57198;52.082;5.108;2023-02-03T07:20:07;11.33;;;2.40;;
69912;SDS011;57198;52.082;5.108;2023-02-03T07:22:34;6.38;;;2.47;;
69912;SDS011;57198;52.082;5.108;2023-02-03T07:25:01;6.13;;;2.40;;
69912;SDS011;57198;52.082;5.108;2023-02-03T07:27:28;7.93;;;2.20;;
69912;SDS011;57198;52.082;5.108;2023-02-03T07:29:56;4.82;;;2.75;;
69912;SDS011;57198;52.082;5.108;2023-02-03T07:32:23;10.30;;;2.63;;
69912;SDS011;57198;52.082;5.108;2023-02-03T07:34:50;7.22;;;2.55;;
69912;SDS011;57198;52.082;5.108;2023-02-03T07:37:17;7.40;;;2.58;;
69912;SDS011;57198;52.082;5.108;2023-02-03T07:39:45;4.55;;;1.90;;
69912;SDS011;57198;52.082;5.108;2023-02-03T07:42:12;8.98;;;2.83;;
69912;SDS011;57198;52.082;5.108;2023-02-03T07:44:43;7.63;;;2.47;;
69912;SDS011;57198;52.082;5.108;2023-02-03T07:47:10;8.30;;;2.95;;
69912;SDS011;57198;52.082;5.108;2023-02-03T07:49:38;9.43;;;2.67;;
69912;SDS011;57198;52.082;5.108;2023-02-03T07:52:05;5.30;;;2.63;;
69912;SDS011;57198;52.082;5.108;2023-02-03T07:54:32;10.10;;;2.70;;
69912;SDS011;57198;52.082;5.108;2023-02-03T07:57:00;8.13;;;2.07;;
69912;SDS011;57198;52.082;5.108;2023-02-03T07:59:27;9.43;;;2.75;;
69912;SDS011;57198;52.082;5.108;2023-02-03T08:01:54;12.15;;;3.03;;
69912;SDS011;57198;52.082;5.108;2023-02-03T08:04:22;7.75;;;2.65;;
69912;SDS011;57198;52.082;5.108;2023-02-03T08:06:49;9.65;;;3.33;;
69912;SDS011;57198;52.082;5.108;2023-02-03T08:09:17;12.07;;;2.87;;
69912;SDS011;57198;52.082;5.108;2023-02-03T08:11:44;6.30;;;2.28;;
69912;SDS011;57198;52.082;5.108;2023-02-03T08:14:12;7.72;;;2.50;;
69912;SDS011;57198;52.082;5.108;2023-02-03T08:16:39;5.32;;;1.98;;
69912;SDS011;57198;52.082;5.108;2023-02-03T08:19:06;10.95;;;2.88;;
69912;SDS011;57198;52.082;5.108;2023-02-03T08:21:33;9.57;;;2.30;;
69912;SDS011;57198;52.082;5.108;2023-02-03T08:24:01;10.68;;;2.40;;
69912;SDS011;57198;52.082;5.108;2023-02-03T08:26:28;10.23;;;2.90;;
69912;SDS011;57198;52.082;5.108;2023-02-03T08:28:55;7.93;;;2.45;;
69912;SDS011;57198;52.082;5.108;2023-02-03T08:31:23;7.57;;;2.38;;
69912;SDS011;57198;52.082;5.108;2023-02-03T08:33:50;9.03;;;2.67;;
69912;SDS011;57198;52.082;5.108;2023-02-03T08:36:17;10.98;;;2.17;;
69912;SDS011;57198;52.082;5.108;2023-02-03T08:38:45;5.63;;;2.50;;
69912;SDS011;57198;52.082;5.108;2023-02-03T08:41:13;9.60;;;2.80;;
69912;SDS011;57198;52.082;5.108;2023-02-03T08:43:41;7.18;;;2.78;;
69912;SDS011;57198;52.082;5.108;2023-02-03T08:46:09;7.70;;;2.27;;
69912;SDS011;57198;52.082;5.108;2023-02-03T08:48:37;10.48;;;2.72;;
69912;SDS011;57198;52.082;5.108;2023-02-03T08:51:08;4.63;;;2.40;;
69912;SDS011;57198;52.082;5.108;2023-02-03T08:53:36;7.53;;;2.67;;
69912;SDS011;57198;52.082;5.108;2023-02-03T08:56:07;8.63;;;2.50;;
69912;SDS011;57198;52.082;5.108;2023-02-03T08:58:35;9.13;;;3.63;;
69912;SDS011;57198;52.082;5.108;2023-02-03T09:01:09;6.45;;;2.38;;
69912;SDS011;57198;52.082;5.108;2023-02-03T09:03:37;3.97;;;2.08;;
69912;SDS011;57198;52.082;5.108;2023-02-03T09:06:05;7.53;;;2.47;;
69912;SDS011;57198;52.082;5.108;2023-02-03T09:08:32;9.43;;;2.97;;
69912;SDS011;57198;52.082;5.108;2023-02-03T09:11:00;6.77;;;2.17;;
69912;SDS011;57198;52.082;5.108;2023-02-03T09:13:27;7.70;;;2.13;;
69912;SDS011;57198;52.082;5.108;2023-02-03T09:15:54;16.08;;;3.08;;
69912;SDS011;57198;52.082;5.108;2023-02-03T09:18:25;7.57;;;2.35;;
69912;SDS011;57198;52.082;5.108;2023-02-03T09:20:58;8.80;;;2.97;;
69912;SDS011;57198;52.082;5.108;2023-02-03T09:23:26;5.67;;;2.47;;
69912;SDS011;57198;52.082;5.108;2023-02-03T09:25:53;9.02;;;2.50;;
69912;SDS011;57198;52.082;5.108;2023-02-03T09:28:21;5.30;;;2.80;;
69912;SDS011;57198;52.082;5.108;2023-02-03T09:30:48;9.43;;;3.08;;
69912;SDS011;57198;52.082;5.108;2023-02-03T09:33:15;9.38;;;3.00;;
69912;SDS011;57198;52.082;5.108;2023-02-03T09:35:50;9.27;;;2.47;;
69912;SDS011;57198;52.082;5.108;2023-02-03T09:38:17;9.25;;;2.30;;
69912;SDS011;57198;52.082;5.108;2023-02-03T09:40:46;7.70;;;2.92;;
69912;SDS011;57198;52.082;5.108;2023-02-03T09:43:55;4.80;;;1.95;;
69912;SDS011;57198;52.082;5.108;2023-02-03T09:46:23;5.65;;;2.40;;
69912;SDS011;57198;52.082;5.108;2023-02-03T09:51:28;8.38;;;2.35;;
69912;SDS011;57198;52.082;5.108;2023-02-03T09:54:12;7.07;;;2.78;;
69912;SDS011;57198;52.082;5.108;2023-02-03T09:56:41;8.85;;;2.88;;
69912;SDS011;57198;52.082;5.108;2023-02-03T09:59:17;6.15;;;2.47;;
69912;SDS011;57198;52.082;5.108;2023-02-03T10:04:38;8.40;;;2.20;;
69912;SDS011;57198;52.082;5.108;2023-02-03T10:07:19;6.25;;;2.72;;
69912;SDS011;57198;52.082;5.108;2023-02-03T10:12:24;11.52;;;2.95;;
69912;SDS011;57198;52.082;5.108;2023-02-03T10:17:37;6.10;;;2.60;;
69912;SDS011;57198;52.082;5.108;2023-02-03T10:22:42;5.63;;;2.33;;
69912;SDS011;57198;52.082;5.108;2023-02-03T10:27:58;8.10;;;2.10;;
69912;SDS011;57198;52.082;5.108;2023-02-03T10:30:28;7.85;;;2.47;;
69912;SDS011;57198;52.082;5.108;2023-02-03T10:33:08;6.68;;;2.47;;
69912;SDS011;57198;52.082;5.108;2023-02-03T10:35:39;8.88;;;2.65;;
69912;SDS011;57198;52.082;5.108;2023-02-03T10:38:12;8.85;;;2.65;;
69912;SDS011;57198;52.082;5.108;2023-02-03T10:40:40;6.13;;;2.03;;
69912;SDS011;57198;52.082;5.108;2023-02-03T10:43:08;6.20;;;2.35;;
69912;SDS011;57198;52.082;5.108;2023-02-03T10:45:54;7.57;;;2.42;;
69912;SDS011;57198;52.082;5.108;2023-02-03T10:48:22;3.53;;;2.28;;
69912;SDS011;57198;52.082;5.108;2023-02-03T10:50:49;6.75;;;2.53;;
69912;SDS011;57198;52.082;5.108;2023-02-03T10:53:51;6.10;;;2.60;;
69912;SDS011;57198;52.082;5.108;2023-02-03T10:56:12;5.95;;;2.20;;
69912;SDS011;57198;52.082;5.108;2023-02-03T10:58:45;5.85;;;2.45;;
69912;SDS011;57198;52.082;5.108;2023-02-03T11:01:14;6.10;;;2.50;;
69912;SDS011;57198;52.082;5.108;2023-02-03T11:03:42;10.18;;;2.47;;
69912;SDS011;57198;52.082;5.108;2023-02-03T11:06:11;5.87;;;1.90;;
69912;SDS011;57198;52.082;5.108;2023-02-03T11:08:40;6.07;;;2.13;;
69912;SDS011;57198;52.082;5.108;2023-02-03T11:11:12;8.00;;;2.55;;
69912;SDS011;57198;52.082;5.108;2023-02-03T11:13:39;4.40;;;2.00;;
69912;SDS011;57198;52.082;5.108;2023-02-03T11:16:14;7.07;;;3.03;;
69912;SDS011;57198;52.082;5.108;2023-02-03T11:18:52;7.17;;;2.10;;
69912;SDS011;57198;52.082;5.108;2023-02-03T11:21:21;5.60;;;2.38;;
69912;SDS011;57198;52.082;5.108;2023-02-03T11:26:20;4.90;;;2.05;;
69912;SDS011;57198;52.082;5.108;2023-02-03T11:28:49;3.83;;;1.90;;
69912;SDS011;57198;52.082;5.108;2023-02-03T11:31:24;7.10;;;2.23;;
69912;SDS011;57198;52.082;5.108;2023-02-03T11:34:02;7.18;;;2.17;;
69912;SDS011;57198;52.082;5.108;2023-02-03T11:36:31;2.72;;;1.70;;
69912;SDS011;57198;52.082;5.108;2023-02-03T11:41:45;10.23;;;2.30;;
69912;SDS011;57198;52.082;5.108;2023-02-03T11:44:17;7.27;;;2.23;;
69912;SDS011;57198;52.082;5.108;2023-02-03T11:46:45;9.75;;;1.98;;
69912;SDS011;57198;52.082;5.108;2023-02-03T11:51:49;6.97;;;1.98;;
69912;SDS011;57198;52.082;5.108;2023-02-03T11:59:31;7.70;;;1.85;;
69912;SDS011;57198;52.082;5.108;2023-02-03T12:30:34;4.55;;;1.88;;
69912;SDS011;57198;52.082;5.108;2023-02-03T12:33:03;4.60;;;2.05;;
69912;SDS011;57198;52.082;5.108;2023-02-03T12:35:44;10.00;;;2.40;;
69912;SDS011;57198;52.082;5.108;2023-02-03T12:38:16;8.23;;;2.15;;
69912;SDS011;57198;52.082;5.108;2023-02-03T12:43:20;10.70;;;2.45;;
69912;SDS011;57198;52.082;5.108;2023-02-03T12:45:52;6.60;;;2.30;;
69912;SDS011;57198;52.082;5.108;2023-02-03T12:48:25;4.80;;;1.97;;
69912;SDS011;57198;52.082;5.108;2023-02-03T12:50:55;6.90;;;2.55;;
69912;SDS011;57198;52.082;5.108;2023-02-03T12:53:29;6.25;;;2.83;;
69912;SDS011;57198;52.082;5.108;2023-02-03T12:56:02;10.57;;;3.30;;
69912;SDS011;57198;52.082;5.108;2023-02-03T12:58:41;7.45;;;2.58;;
69912;SDS011;57198;52.082;5.108;2023-02-03T13:01:27;12.33;;;2.40;;
69912;SDS011;57198;52.082;5.108;2023-02-03T13:04:04;12.13;;;2.72;;
69912;SDS011;57198;52.082;5.108;2023-02-03T13:06:43;8.27;;;3.13;;
69912;SDS011;57198;52.082;5.108;2023-02-03T13:09:33;10.63;;;2.97;;
69912;SDS011;57198;52.082;5.108;2023-02-03T13:14:46;7.57;;;2.33;;
69912;SDS011;57198;52.082;5.108;2023-02-03T13:17:23;9.77;;;2.63;;
69912;SDS011;57198;52.082;5.108;2023-02-03T13:19:52;7.45;;;2.42;;
69912;SDS011;57198;52.082;5.108;2023-02-03T13:22:21;7.13;;;2.65;;
69912;SDS011;57198;52.082;5.108;2023-02-03T13:24:52;8.23;;;2.60;;
69912;SDS011;57198;52.082;5.108;2023-02-03T13:37:54;5.85;;;2.60;;
69912;SDS011;57198;52.082;5.108;2023-02-03T13:43:00;10.15;;;2.90;;
69912;SDS011;57198;52.082;5.108;2023-02-03T13:45:32;12.32;;;3.08;;
69912;SDS011;57198;52.082;5.108;2023-02-03T13:50:47;14.82;;;3.72;;
69912;SDS011;57198;52.082;5.108;2023-02-03T13:53:22;12.20;;;2.30;;
69912;SDS011;57198;52.082;5.108;2023-02-03T13:55:52;9.88;;;2.40;;
69912;SDS011;57198;52.082;5.108;2023-02-03T13:58:22;10.80;;;3.30;;
69912;SDS011;57198;52.082;5.108;2023-02-03T14:05:55;10.27;;;2.30;;
69912;SDS011;57198;52.082;5.108;2023-02-03T14:13:39;14.13;;;3.20;;
69912;SDS011;57198;52.082;5.108;2023-02-03T14:16:13;11.48;;;2.88;;
69912;SDS011;57198;52.082;5.108;2023-02-03T14:18:48;15.70;;;2.93;;
69912;SDS011;57198;52.082;5.108;2023-02-03T14:21:17;12.32;;;2.58;;
69912;SDS011;57198;52.082;5.108;2023-02-03T14:23:47;13.15;;;3.85;;
69912;SDS011;57198;52.082;5.108;2023-02-03T14:26:20;14.88;;;3.33;;
69912;SDS011;57198;52.082;5.108;2023-02-03T14:28:49;15.82;;;3.00;;
69912;SDS011;57198;52.082;5.108;2023-02-03T14:31:22;9.00;;;3.07;;
69912;SDS011;57198;52.082;5.108;2023-02-03T14:34:00;15.90;;;2.50;;
69912;SDS011;57198;52.082;5.108;2023-02-03T14:36:33;14.85;;;3.08;;
69912;SDS011;57198;52.082;5.108;2023-02-03T14:39:21;10.50;;;2.70;;
69912;SDS011;57198;52.082;5.108;2023-02-03T14:44:28;12.77;;;2.40;;
69912;SDS011;57198;52.082;5.108;2023-02-03T14:49:52;12.50;;;3.50;;
69912;SDS011;57198;52.082;5.108;2023-02-03T14:57:38;16.83;;;3.57;;
69912;SDS011;57198;52.082;5.108;2023-02-03T15:03:14;18.83;;;3.00;;
69912;SDS011;57198;52.082;5.108;2023-02-03T15:07:55;18.10;;;3.63;;
69912;SDS011;57198;52.082;5.108;2023-02-03T15:12:53;13.75;;;3.50;;
69912;SDS011;57198;52.082;5.108;2023-02-03T15:15:22;18.60;;;3.67;;
69912;SDS011;57198;52.082;5.108;2023-02-03T15:17:51;15.38;;;3.15;;
69912;SDS011;57198;52.082;5.108;2023-02-03T15:22:49;19.27;;;3.47;;
69912;SDS011;57198;52.082;5.108;2023-02-03T15:25:17;16.20;;;3.05;;
69912;SDS011;57198;52.082;5.108;2023-02-03T15:27:45;13.32;;;3.70;;
69912;SDS011;57198;52.082;5.108;2023-02-03T15:32:47;18.55;;;3.63;;
69912;SDS011;57198;52.082;5.108;2023-02-03T15:35:17;15.70;;;3.47;;
69912;SDS011;57198;52.082;5.108;2023-02-03T15:37:49;19.48;;;3.65;;
69912;SDS011;57198;52.082;5.108;2023-02-03T15:40:18;12.57;;;3.30;;
69912;SDS011;57198;52.082;5.108;2023-02-03T15:43:00;15.93;;;3.45;;
69912;SDS011;57198;52.082;5.108;2023-02-03T15:45:31;16.70;;;3.72;;
69912;SDS011;57198;52.082;5.108;2023-02-03T15:48:04;14.17;;;2.90;;
69912;SDS011;57198;52.082;5.108;2023-02-03T15:50:39;17.83;;;3.15;;
69912;SDS011;57198;52.082;5.108;2023-02-03T15:53:22;14.63;;;2.78;;
69912;SDS011;57198;52.082;5.108;2023-02-03T15:56:02;20.40;;;3.28;;
69912;SDS011;57198;52.082;5.108;2023-02-03T15:58:36;20.55;;;3.70;;
69912;SDS011;57198;52.082;5.108;2023-02-03T16:01:08;18.23;;;4.20;;
69912;SDS011;57198;52.082;5.108;2023-02-03T16:03:40;19.17;;;3.58;;
69912;SDS011;57198;52.082;5.108;2023-02-03T16:06:12;13.27;;;3.22;;
69912;SDS011;57198;52.082;5.108;2023-02-03T16:08:43;13.25;;;2.97;;
69912;SDS011;57198;52.082;5.108;2023-02-03T16:13:47;16.37;;;3.50;;
69912;SDS011;57198;52.082;5.108;2023-02-03T16:16:16;16.23;;;3.42;;
69912;SDS011;57198;52.082;5.108;2023-02-03T16:18:51;13.65;;;3.00;;
69912;SDS011;57198;52.082;5.108;2023-02-03T16:23:52;19.30;;;3.45;;
69912;SDS011;57198;52.082;5.108;2023-02-03T16:26:21;16.53;;;3.43;;
69912;SDS011;57198;52.082;5.108;2023-02-03T16:32:13;15.98;;;3.72;;
69912;SDS011;57198;52.082;5.108;2023-02-03T16:35:01;11.35;;;3.63;;
69912;SDS011;57198;52.082;5.108;2023-02-03T16:37:47;12.93;;;3.33;;
69912;SDS011;57198;52.082;5.108;2023-02-03T16:40:33;17.33;;;3.30;;
69912;SDS011;57198;52.082;5.108;2023-02-03T16:43:19;14.48;;;3.75;;
69912;SDS011;57198;52.082;5.108;2023-02-03T16:46:07;16.55;;;3.85;;
69912;SDS011;57198;52.082;5.108;2023-02-03T16:48:55;15.57;;;3.28;;
69912;SDS011;57198;52.082;5.108;2023-02-03T16:51:41;13.10;;;3.60;;
69912;SDS011;57198;52.082;5.108;2023-02-03T16:54:10;14.63;;;4.20;;
69912;SDS011;57198;52.082;5.108;2023-02-03T16:56:42;19.10;;;3.42;;
69912;SDS011;57198;52.082;5.108;2023-02-03T16:59:09;13.15;;;3.38;;
69912;SDS011;57198;52.082;5.108;2023-02-03T17:01:37;17.63;;;3.75;;
69912;SDS011;57198;52.082;5.108;2023-02-03T17:04:04;15.27;;;3.85;;
69912;SDS011;57198;52.082;5.108;2023-02-03T17:06:35;17.90;;;3.60;;
69912;SDS011;57198;52.082;5.108;2023-02-03T17:09:03;10.27;;;2.58;;
69912;SDS011;57198;52.082;5.108;2023-02-03T17:11:30;13.63;;;3.95;;
69912;SDS011;57198;52.082;5.108;2023-02-03T17:13:57;13.80;;;3.60;;
69912;SDS011;57198;52.082;5.108;2023-02-03T17:16:25;17.17;;;3.80;;
69912;SDS011;57198;52.082;5.108;2023-02-03T17:18:53;13.80;;;3.40;;
69912;SDS011;57198;52.082;5.108;2023-02-03T17:21:23;14.70;;;3.55;;
69912;SDS011;57198;52.082;5.108;2023-02-03T17:23:50;15.20;;;3.30;;